Time;durP1;ratioP1;P1;durP2;ratioP2;P2;SDS_P1;SDS_P2;PMS_P1;PMS_P2;Temp;Humidity;BMP_temperature;BMP_pressure;BME280_temperature;BME280_humidity;BME280_pressure;Samples;Min_cycle;Max_cycle;Signal;HPM_P1;HPM_P2
2023/04/12 00:01:39;;;;;;;3.60;1.83;;;12.50;91.40;;;;;;10098058;28;20094;-58
2023/04/12 00:06:33;;;;;;;2.33;0.98;;;12.50;91.60;;;;;;10054333;28;1111070;-58
2023/04/12 00:11:25;;;;;;;4.20;1.00;;;12.30;92.10;;;;;;10097824;28;20406;-58
2023/04/12 00:16:15;;;;;;;2.47;1.27;;;12.40;92.40;;;;;;10106420;28;20579;-55
2023/04/12 00:21:07;;;;;;;2.08;0.85;;;12.20;92.80;;;;;;10103681;28;20029;-53
2023/04/12 00:25:58;;;;;;;1.25;0.90;;;12.20;93.20;;;;;;10104809;28;20051;-58
2023/04/12 00:30:48;;;;;;;3.88;0.90;;;12.40;93.30;;;;;;10100155;28;20059;-58
2023/04/12 00:35:39;;;;;;;3.13;1.02;;;12.40;93.70;;;;;;10099669;28;20550;-57
2023/04/12 00:40:30;;;;;;;1.15;0.63;;;12.30;93.90;;;;;;10099873;28;20032;-57
2023/04/12 00:45:20;;;;;;;1.75;1.00;;;12.20;94.50;;;;;;10103515;28;20036;-56
2023/04/12 00:50:11;;;;;;;2.13;1.17;;;12.20;94.70;;;;;;10103394;28;20520;-54
2023/04/12 00:55:06;;;;;;;1.75;0.90;;;12.20;95.00;;;;;;10099523;28;20450;-53
2023/04/12 00:59:57;;;;;;;4.18;1.83;;;12.20;95.20;;;;;;10096506;28;20067;-59
2023/04/12 01:04:50;;;;;;;1.85;1.02;;;12.20;95.40;;;;;;10098682;28;20060;-56
2023/04/12 01:09:50;;;;;;;3.05;0.98;;;12.10;95.90;;;;;;10098472;28;20104;-56
2023/04/12 01:15:04;;;;;;;2.83;1.80;;;12.20;96.00;;;;;;10101860;28;20515;-57
2023/04/12 01:20:11;;;;;;;1.67;0.90;;;12.20;96.40;;;;;;10097259;28;20048;-57
2023/04/12 01:25:37;;;;;;;3.33;1.55;;;12.10;96.60;;;;;;10096284;28;20076;-57
2023/04/12 01:30:30;;;;;;;3.10;1.17;;;12.20;96.80;;;;;;10091379;28;20028;-55
2023/04/12 01:35:25;;;;;;;1.48;0.90;;;12.10;96.80;;;;;;10089608;28;20419;-59
2023/04/12 01:40:17;;;;;;;1.97;1.00;;;12.10;97.00;;;;;;10095763;28;20037;-57
2023/04/12 01:45:08;;;;;;;3.15;1.30;;;12.20;97.30;;;;;;10094175;28;20067;-57
2023/04/12 01:50:13;;;;;;;3.25;1.13;;;12.10;97.60;;;;;;10098750;28;20080;-59
2023/04/12 01:55:05;;;;;;;2.83;1.10;;;12.00;98.20;;;;;;10092176;28;20116;-58
2023/04/12 01:59:58;;;;;;;2.33;1.23;;;12.00;98.20;;;;;;10084925;28;20056;-60
2023/04/12 02:04:51;;;;;;;2.35;1.27;;;12.10;98.30;;;;;;10093316;28;20061;-59
2023/04/12 02:09:41;;;;;;;7.68;1.60;;;12.10;98.50;;;;;;10098577;28;20120;-60
2023/04/12 02:14:32;;;;;;;3.50;1.45;;;12.00;98.70;;;;;;10096508;28;20120;-58
2023/04/12 02:19:23;;;;;;;3.67;1.42;;;12.00;98.90;;;;;;10097067;28;20522;-57
2023/04/12 02:24:14;;;;;;;2.30;1.00;;;11.70;99.50;;;;;;10096138;28;20025;-59
2023/04/12 02:29:09;;;;;;;3.88;1.20;;;11.70;99.70;;;;;;10095526;28;20021;-59
2023/04/12 02:34:00;;;;;;;1.65;1.15;;;11.80;99.90;;;;;;10095206;28;20040;-59
2023/04/12 02:38:50;;;;;;;3.08;1.10;;;11.80;99.90;;;;;;10108822;28;20167;-58
2023/04/12 02:43:41;;;;;;;0.93;0.70;;;11.60;99.90;;;;;;10103207;28;20543;-59
2023/04/12 02:48:32;;;;;;;1.33;0.95;;;11.60;99.90;;;;;;10105603;28;20463;-58
2023/04/12 02:53:22;;;;;;;1.65;0.90;;;11.60;99.90;;;;;;10103497;28;20033;-59
2023/04/12 02:58:13;;;;;;;2.25;0.88;;;11.60;99.90;;;;;;10102039;28;20283;-58
2023/04/12 03:03:03;;;;;;;1.90;1.02;;;11.50;99.90;;;;;;10091836;28;20511;-58
2023/04/12 03:07:54;;;;;;;2.95;1.92;;;11.60;99.90;;;;;;10101246;28;20021;-59
2023/04/12 03:12:45;;;;;;;3.67;1.20;;;11.50;99.90;;;;;;10103172;28;20029;-59
2023/04/12 03:17:36;;;;;;;3.13;1.00;;;11.40;99.90;;;;;;10102144;28;20120;-58
2023/04/12 03:22:26;;;;;;;6.28;1.65;;;11.30;99.90;;;;;;10097651;28;20083;-57
2023/04/12 03:27:17;;;;;;;2.88;0.98;;;11.40;99.90;;;;;;10101465;28;20060;-58
2023/04/12 03:32:07;;;;;;;1.30;1.05;;;11.40;99.90;;;;;;10100041;28;20013;-58
2023/04/12 03:37:02;;;;;;;1.52;0.90;;;11.40;99.90;;;;;;10101841;28;20653;-57
2023/04/12 03:41:53;;;;;;;2.97;1.20;;;11.40;99.90;;;;;;10102465;28;20025;-57
2023/04/12 03:46:44;;;;;;;1.65;0.90;;;11.40;99.90;;;;;;10106859;28;20036;-57
2023/04/12 03:51:35;;;;;;;2.55;0.80;;;11.40;99.90;;;;;;10087254;28;20021;-58
2023/04/12 03:56:26;;;;;;;4.25;1.30;;;11.50;99.90;;;;;;10100001;28;20135;-57
2023/04/12 04:01:16;;;;;;;2.03;1.13;;;11.40;99.90;;;;;;10104787;28;20037;-53
2023/04/12 04:06:07;;;;;;;1.15;1.00;;;11.40;99.90;;;;;;10100274;28;20055;-58
2023/04/12 04:10:59;;;;;;;3.75;1.10;;;11.50;99.90;;;;;;10101104;28;20061;-58
2023/04/12 04:15:59;;;;;;;1.55;0.80;;;11.40;99.90;;;;;;10100343;28;20109;-59
2023/04/12 04:20:50;;;;;;;3.88;0.88;;;11.30;99.90;;;;;;10101686;28;20102;-57
2023/04/12 04:25:41;;;;;;;1.30;0.88;;;11.30;99.90;;;;;;10100397;28;20048;-57
2023/04/12 04:30:33;;;;;;;2.33;1.30;;;11.10;99.90;;;;;;10096471;28;20031;-60
2023/04/12 04:35:23;;;;;;;2.17;0.80;;;11.10;99.90;;;;;;10100147;28;20045;-58
2023/04/12 04:40:14;;;;;;;1.63;0.73;;;11.10;99.90;;;;;;10100885;28;20110;-58
2023/04/12 04:45:11;;;;;;;2.03;1.42;;;11.00;99.90;;;;;;10093482;28;20523;-56
2023/04/12 04:50:02;;;;;;;3.20;0.80;;;11.10;99.90;;;;;;10101247;28;20071;-58
2023/04/12 04:54:56;;;;;;;1.85;1.00;;;11.00;99.90;;;;;;10098475;28;20067;-58
2023/04/12 04:59:47;;;;;;;2.20;0.90;;;11.00;99.90;;;;;;10107536;28;20029;-59
2023/04/12 05:04:37;;;;;;;2.28;1.45;;;11.10;99.90;;;;;;10096872;28;20049;-54
2023/04/12 05:09:28;;;;;;;3.28;1.10;;;11.10;99.90;;;;;;10096484;28;20029;-54
2023/04/12 05:14:18;;;;;;;1.50;0.90;;;11.20;99.90;;;;;;10098146;28;20051;-59
2023/04/12 05:19:09;;;;;;;1.58;1.00;;;11.10;99.90;;;;;;10097358;28;20032;-57
2023/04/12 05:24:00;;;;;;;1.63;0.82;;;11.10;99.90;;;;;;10096752;28;20116;-56
2023/04/12 05:28:50;;;;;;;3.33;1.02;;;11.00;99.90;;;;;;10095771;28;20024;-56
2023/04/12 05:33:41;;;;;;;2.03;1.00;;;11.00;99.90;;;;;;10097244;28;20071;-55
2023/04/12 05:38:32;;;;;;;1.05;0.88;;;11.00;99.90;;;;;;10096774;28;20116;-57
2023/04/12 05:43:22;;;;;;;3.20;1.42;;;11.10;99.90;;;;;;10096182;28;20025;-55
2023/04/12 05:48:13;;;;;;;1.50;1.02;;;11.10;99.90;;;;;;10094316;28;20415;-59
2023/04/12 05:53:04;;;;;;;2.67;1.00;;;11.10;99.90;;;;;;10095692;28;20086;-58
2023/04/12 05:57:54;;;;;;;2.85;0.90;;;11.20;99.90;;;;;;10099322;28;20508;-56
2023/04/12 06:02:46;;;;;;;1.38;1.02;;;11.10;99.90;;;;;;10094494;28;20136;-55
2023/04/12 06:07:38;;;;;;;1.60;1.02;;;11.10;99.90;;;;;;10096889;28;20116;-60
2023/04/12 06:12:29;;;;;;;1.58;1.48;;;11.20;99.90;;;;;;10096285;28;20025;-59
2023/04/12 06:17:19;;;;;;;1.20;0.90;;;11.20;99.90;;;;;;10104172;28;20032;-59
2023/04/12 06:22:10;;;;;;;4.13;1.23;;;11.20;99.90;;;;;;10102464;28;20394;-58
2023/04/12 06:27:01;;;;;;;1.77;1.00;;;11.30;99.90;;;;;;10100471;28;20047;-57
2023/04/12 06:31:51;;;;;;;2.42;1.10;;;11.40;99.90;;;;;;10103450;28;20067;-57
2023/04/12 06:36:45;;;;;;;2.40;1.10;;;11.50;99.90;;;;;;10084415;28;20079;-57
2023/04/12 06:41:35;;;;;;;2.35;1.10;;;11.40;99.90;;;;;;10099198;28;20072;-60
2023/04/12 06:46:27;;;;;;;2.25;1.20;;;11.50;99.90;;;;;;10104869;28;20036;-58
2023/04/12 06:51:17;;;;;;;2.30;1.08;;;11.50;99.90;;;;;;10105470;28;20032;-59
2023/04/12 06:56:08;;;;;;;5.43;0.98;;;11.50;99.90;;;;;;10097730;28;20098;-55
2023/04/12 07:01:09;;;;;;;2.85;1.35;;;11.50;99.90;;;;;;10100857;28;20040;-60
2023/04/12 07:06:01;;;;;;;1.15;0.93;;;11.50;99.90;;;;;;10095396;28;20559;-59
2023/04/12 07:10:55;;;;;;;3.95;1.40;;;11.60;99.90;;;;;;10090232;28;20021;-59
2023/04/12 07:15:47;;;;;;;4.03;1.38;;;11.50;99.90;;;;;;10100531;28;20379;-60
2023/04/12 07:20:39;;;;;;;3.72;1.20;;;11.70;99.90;;;;;;10096957;28;20040;-58
2023/04/12 07:25:30;;;;;;;2.25;1.70;;;11.60;99.90;;;;;;10099565;28;20064;-55
2023/04/12 07:30:21;;;;;;;5.28;1.50;;;11.60;99.90;;;;;;10096108;28;20047;-58
2023/04/12 07:35:11;;;;;;;2.90;1.80;;;11.80;99.90;;;;;;10098380;28;20037;-60
2023/04/12 07:40:02;;;;;;;2.47;1.48;;;11.70;99.90;;;;;;10097644;28;20033;-61
2023/04/12 07:44:53;;;;;;;4.95;2.03;;;11.70;99.90;;;;;;10098917;28;20455;-55
2023/04/12 07:49:43;;;;;;;4.75;1.80;;;11.70;99.90;;;;;;10098241;28;20538;-60
2023/04/12 07:54:34;;;;;;;4.60;1.92;;;11.70;99.90;;;;;;10098166;28;20036;-59
2023/04/12 07:59:25;;;;;;;22.55;13.07;;;11.70;99.90;;;;;;10099355;28;20033;-59
2023/04/12 08:04:16;;;;;;;6.65;2.92;;;11.80;99.90;;;;;;10103182;28;20049;-59
2023/04/12 08:09:06;;;;;;;2.83;2.30;;;11.90;99.90;;;;;;10099420;28;20466;-60
2023/04/12 08:13:57;;;;;;;4.30;1.88;;;11.90;99.90;;;;;;10102386;28;20094;-60
2023/04/12 08:18:47;;;;;;;3.67;2.50;;;12.00;99.90;;;;;;10101000;28;20550;-59
2023/04/12 08:23:38;;;;;;;3.53;1.70;;;12.00;99.90;;;;;;10104039;28;20487;-60
2023/04/12 08:28:30;;;;;;;2.67;1.58;;;12.20;99.90;;;;;;10112610;28;20107;-59
2023/04/12 08:33:20;;;;;;;4.05;1.67;;;12.20;99.90;;;;;;10107204;28;20066;-59
2023/04/12 08:38:11;;;;;;;2.03;1.70;;;12.20;99.90;;;;;;10096701;28;20124;-60
2023/04/12 08:43:06;;;;;;;2.22;1.70;;;12.30;99.90;;;;;;10108785;28;20290;-60
2023/04/12 08:48:00;;;;;;;2.00;1.40;;;12.50;99.90;;;;;;10101817;28;20037;-61
2023/04/12 08:52:52;;;;;;;5.50;1.70;;;12.80;99.90;;;;;;10093679;28;20036;-60
2023/04/12 08:57:43;;;;;;;2.92;1.73;;;12.90;99.90;;;;;;10096091;28;20512;-59
2023/04/12 09:02:37;;;;;;;5.72;2.90;;;12.80;99.90;;;;;;10097066;28;20040;-60
2023/04/12 09:07:29;;;;;;;7.07;1.80;;;12.90;99.90;;;;;;10097079;28;20114;-60
2023/04/12 09:12:22;;;;;;;4.45;1.83;;;12.90;99.90;;;;;;10096776;28;20017;-61
2023/04/12 09:17:27;;;;;;;2.22;1.48;;;12.90;99.90;;;;;;10097440;28;20119;-59
2023/04/12 09:22:18;;;;;;;5.88;1.38;;;13.00;99.90;;;;;;10097809;28;20036;-59
2023/04/12 09:27:09;;;;;;;4.53;1.45;;;12.90;99.90;;;;;;10084646;28;20009;-63
2023/04/12 09:32:06;;;;;;;2.17;1.40;;;13.10;99.90;;;;;;10097012;28;20090;-62
2023/04/12 09:36:57;;;;;;;5.15;1.70;;;13.20;99.90;;;;;;10096835;28;20032;-62
2023/04/12 09:42:02;;;;;;;4.13;1.40;;;13.30;99.90;;;;;;10095084;28;20037;-58
2023/04/12 09:46:53;;;;;;;2.07;1.13;;;13.40;99.90;;;;;;10102243;28;20075;-61
2023/04/12 09:51:51;;;;;;;5.30;1.45;;;13.50;99.90;;;;;;10094368;28;20032;-60
2023/04/12 09:56:43;;;;;;;2.17;1.25;;;13.60;99.90;;;;;;10084416;28;20037;-59
2023/04/12 10:01:43;;;;;;;1.73;1.33;;;13.70;99.90;;;;;;10087167;28;20378;-59
2023/04/12 10:06:34;;;;;;;3.38;1.50;;;13.80;99.90;;;;;;10093877;28;20124;-56
2023/04/12 10:11:27;;;;;;;1.80;1.05;;;13.80;99.90;;;;;;10094210;28;20028;-59
2023/04/12 10:16:19;;;;;;;3.78;1.40;;;13.80;99.90;;;;;;10094460;28;20037;-65
2023/04/12 10:21:11;;;;;;;6.82;2.05;;;14.00;99.90;;;;;;10093444;28;20096;-62
2023/04/12 10:26:03;;;;;;;1.40;1.05;;;14.00;99.90;;;;;;10094248;28;20508;-59
2023/04/12 10:30:57;;;;;;;3.72;1.30;;;14.00;99.90;;;;;;10091286;28;20025;-60
2023/04/12 10:35:59;;;;;;;2.70;1.23;;;14.20;99.90;;;;;;10093442;28;20072;-61
2023/04/12 10:41:21;;;;;;;3.60;1.63;;;14.60;99.90;;;;;;10091834;28;20082;-61
2023/04/12 10:46:36;;;;;;;1.27;1.10;;;14.50;99.90;;;;;;10094468;28;20086;-57
2023/04/12 10:51:27;;;;;;;7.03;1.35;;;14.80;99.90;;;;;;10093771;28;20076;-55
2023/04/12 10:56:33;;;;;;;6.70;1.42;;;15.00;99.90;;;;;;10095286;28;20189;-62
2023/04/12 11:01:23;;;;;;;;;;;14.80;99.90;;;;;;10103189;28;20404;-59
2023/04/12 11:06:14;;;;;;;2.92;1.30;;;14.70;99.90;;;;;;10102165;28;19917;-59
2023/04/12 11:11:17;;;;;;;3.63;1.13;;;14.40;99.90;;;;;;10101789;28;20060;-61
2023/04/12 11:16:11;;;;;;;2.60;1.42;;;14.20;99.90;;;;;;10101533;28;20045;-61
2023/04/12 11:21:03;;;;;;;2.28;1.13;;;14.20;99.90;;;;;;10103615;28;20021;-59
2023/04/12 11:25:54;;;;;;;1.63;1.02;;;14.20;99.90;;;;;;10095073;28;20175;-55
2023/04/12 11:30:52;;;;;;;4.43;1.40;;;14.40;99.90;;;;;;10102596;28;20029;-59
2023/04/12 11:35:43;;;;;;;1.83;1.20;;;14.70;99.90;;;;;;10096340;28;20033;-61
2023/04/12 11:40:33;;;;;;;3.83;1.73;;;15.00;99.90;;;;;;10101239;28;20021;-59
2023/04/12 11:45:25;;;;;;;15.32;11.13;;;15.50;99.90;;;;;;10100289;28;20170;-63
2023/04/12 11:50:28;;;;;;;66.38;40.03;;;15.40;99.90;;;;;;10104378;28;20025;-58
2023/04/12 11:55:19;;;;;;;14.90;9.55;;;15.50;99.90;;;;;;10096331;28;20116;-56
2023/04/12 12:00:10;;;;;;;4.93;2.80;;;15.10;99.90;;;;;;10099720;28;20538;-57
2023/04/12 12:05:01;;;;;;;4.15;1.58;;;14.80;99.90;;;;;;10096334;28;20051;-61
2023/04/12 12:09:52;;;;;;;6.00;3.55;;;14.80;99.90;;;;;;10098947;28;20060;-60
2023/04/12 12:14:46;;;;;;;2.72;1.60;;;14.70;99.90;;;;;;10094732;28;20044;-60
2023/04/12 12:19:39;;;;;;;2.25;1.25;;;14.80;99.90;;;;;;10084062;28;20037;-60
2023/04/12 12:24:31;;;;;;;4.03;1.58;;;14.80;99.90;;;;;;10088435;28;20048;-60
2023/04/12 12:29:23;;;;;;;3.38;1.40;;;15.00;99.90;;;;;;10091613;28;20033;-62
2023/04/12 12:34:18;;;;;;;2.55;1.48;;;15.40;99.90;;;;;;10094448;28;20036;-63
2023/04/12 12:39:10;;;;;;;2.17;1.13;;;15.70;99.90;;;;;;10090704;28;20479;-60
2023/04/12 12:44:01;;;;;;;3.15;1.00;;;15.50;99.90;;;;;;10092239;28;20055;-57
2023/04/12 12:48:51;;;;;;;3.00;1.17;;;15.60;99.90;;;;;;10093482;28;20040;-62
2023/04/12 12:53:42;;;;;;;3.47;1.30;;;15.60;99.90;;;;;;10087739;28;20021;-61
2023/04/12 12:58:33;;;;;;;2.85;0.93;;;15.60;99.90;;;;;;10089281;28;20513;-59
2023/04/12 13:03:24;;;;;;;1.75;1.02;;;15.90;99.90;;;;;;10088948;28;20087;-59
2023/04/12 13:08:15;;;;;;;2.72;1.05;;;16.40;99.90;;;;;;10087756;28;20036;-58
2023/04/12 13:13:05;;;;;;;1.65;1.00;;;17.30;99.90;;;;;;10086383;28;20031;-62
2023/04/12 13:17:56;;;;;;;1.80;1.15;;;17.70;99.90;;;;;;10077947;28;20041;-55
2023/04/12 13:22:47;;;;;;;2.50;0.90;;;17.10;99.90;;;;;;10089003;28;20032;-55
2023/04/12 13:27:37;;;;;;;4.90;1.70;;;16.70;99.90;;;;;;10099630;28;20075;-59
2023/04/12 13:32:28;;;;;;;1.85;0.88;;;16.50;99.90;;;;;;10096546;28;20025;-58
2023/04/12 13:37:19;;;;;;;1.25;0.80;;;15.90;99.90;;;;;;10096860;28;20040;-59
2023/04/12 13:42:10;;;;;;;5.22;1.23;;;15.50;99.90;;;;;;10097697;28;20275;-55
2023/04/12 13:47:01;;;;;;;1.27;1.00;;;15.30;99.90;;;;;;10102238;28;20029;-61
2023/04/12 13:51:52;;;;;;;1.88;0.90;;;14.90;99.90;;;;;;10086060;28;20588;-61
2023/04/12 13:56:43;;;;;;;0.63;0.50;;;13.60;99.90;;;;;;10090748;28;20176;-56
2023/04/12 14:01:34;;;;;;;0.80;0.32;;;12.70;99.90;;;;;;10094329;28;20070;-55
2023/04/12 14:06:25;;;;;;;1.85;0.60;;;12.50;99.90;;;;;;10093699;28;20110;-57
2023/04/12 14:11:16;;;;;;;0.30;0.20;;;12.30;99.90;;;;;;10095485;28;20361;-59
2023/04/12 14:16:07;;;;;;;0.90;0.82;;;12.30;99.90;;;;;;10095125;28;20049;-57
2023/04/12 14:20:58;;;;;;;0.30;0.30;;;12.10;99.90;;;;;;10099407;28;20041;-57
2023/04/12 14:25:48;;;;;;;0.30;0.30;;;12.30;99.90;;;;;;10097936;28;20086;-60
2023/04/12 14:30:40;;;;;;;2.13;0.50;;;12.60;99.90;;;;;;10097320;28;20400;-56
2023/04/12 14:35:31;;;;;;;0.93;0.50;;;12.60;99.90;;;;;;10103128;28;20422;-56
2023/04/12 14:40:22;;;;;;;2.70;0.60;;;12.80;99.90;;;;;;10104578;28;20025;-52
2023/04/12 14:45:13;;;;;;;0.93;0.32;;;13.10;99.90;;;;;;10102971;28;20060;-59
2023/04/12 14:50:04;;;;;;;0.40;0.20;;;13.60;99.90;;;;;;10106393;28;20032;-61
2023/04/12 14:54:55;;;;;;;1.13;0.43;;;13.80;99.90;;;;;;10102739;28;20028;-59
2023/04/12 14:59:46;;;;;;;1.33;0.60;;;13.80;99.90;;;;;;10102751;28;20417;-57
2023/04/12 15:04:36;;;;;;;2.17;0.63;;;14.30;99.90;;;;;;10097295;28;20073;-59
2023/04/12 15:09:27;;;;;;;2.45;0.73;;;14.80;99.90;;;;;;10097444;28;20052;-56
2023/04/12 15:14:19;;;;;;;0.95;0.60;;;14.70;99.90;;;;;;10103567;28;20407;-57
2023/04/12 15:19:09;;;;;;;0.88;0.50;;;14.60;99.90;;;;;;10108002;28;20024;-56
2023/04/12 15:24:00;;;;;;;1.35;0.60;;;14.60;99.90;;;;;;10102937;28;20030;-56
2023/04/12 15:28:50;;;;;;;1.00;0.50;;;14.40;99.90;;;;;;10101785;28;20044;-57
2023/04/12 15:33:41;;;;;;;1.33;0.43;;;14.40;99.90;;;;;;10100481;28;20079;-57
2023/04/12 15:38:40;;;;;;;0.20;0.20;;;14.50;99.90;;;;;;10102800;28;20398;-58
2023/04/12 15:43:30;;;;;;;0.47;0.40;;;14.40;99.90;;;;;;10101144;28;20032;-56
2023/04/12 15:48:22;;;;;;;0.95;0.30;;;14.90;99.90;;;;;;10105673;28;20033;-57
2023/04/12 15:53:23;;;;;;;0.60;0.30;;;16.00;99.90;;;;;;10099387;28;20044;-59
2023/04/12 15:58:14;;;;;;;1.13;0.65;;;16.50;99.90;;;;;;10099969;28;20507;-55
2023/04/12 16:03:06;;;;;;;0.90;0.50;;;15.90;99.90;;;;;;10100705;28;20060;-62
2023/04/12 16:07:56;;;;;;;0.88;0.40;;;15.00;99.90;;;;;;10099719;28;20036;-57
2023/04/12 16:12:48;;;;;;;0.38;0.32;;;14.70;99.90;;;;;;10103608;28;20021;-59
2023/04/12 16:17:39;;;;;;;0.75;0.47;;;14.60;99.90;;;;;;10099707;28;20037;-57
2023/04/12 16:22:30;;;;;;;2.38;1.27;;;14.50;99.90;;;;;;10099323;28;20036;-59
2023/04/12 16:27:21;;;;;;;0.93;0.40;;;14.30;99.90;;;;;;10099175;28;20040;-62
2023/04/12 16:32:12;;;;;;;1.92;0.80;;;14.00;99.90;;;;;;10105312;28;20223;-60
2023/04/12 16:37:03;;;;;;;1.13;0.68;;;13.90;99.90;;;;;;10100565;28;20662;-60
2023/04/12 16:41:54;;;;;;;1.33;0.60;;;13.80;99.90;;;;;;10085560;28;20498;-59
2023/04/12 16:46:46;;;;;;;1.52;0.82;;;13.60;99.90;;;;;;10104994;28;20033;-59
2023/04/12 16:51:37;;;;;;;1.42;0.75;;;13.50;99.90;;;;;;10093595;28;20497;-59
2023/04/12 16:56:28;;;;;;;0.77;0.43;;;13.50;99.90;;;;;;10097560;28;20106;-59
2023/04/12 17:01:19;;;;;;;1.05;0.57;;;13.40;99.90;;;;;;10098227;28;20021;-62
2023/04/12 17:06:09;;;;;;;2.13;0.88;;;13.40;99.90;;;;;;10097545;28;20049;-56
2023/04/12 17:11:00;;;;;;;0.85;0.70;;;13.50;99.90;;;;;;10106327;28;20391;-55
2023/04/12 17:15:51;;;;;;;0.82;0.47;;;13.60;99.90;;;;;;10097082;28;20036;-59
2023/04/12 17:20:42;;;;;;;0.82;0.57;;;13.60;99.90;;;;;;10097753;28;20099;-56
2023/04/12 17:25:32;;;;;;;1.90;0.77;;;13.50;99.90;;;;;;10097272;28;20584;-56
2023/04/12 17:30:23;;;;;;;0.98;0.60;;;13.50;99.90;;;;;;10091372;28;20114;-56
2023/04/12 17:35:18;;;;;;;5.57;1.85;;;13.50;99.90;;;;;;10091092;28;20032;-55
2023/04/12 17:40:09;;;;;;;1.88;1.17;;;13.50;99.90;;;;;;10093504;28;20079;-56
2023/04/12 17:45:00;;;;;;;2.80;1.30;;;13.40;99.90;;;;;;10093721;28;20087;-54
2023/04/12 17:49:50;;;;;;;4.05;1.20;;;13.30;99.90;;;;;;10098016;28;20474;-53
2023/04/12 17:54:41;;;;;;;1.73;0.95;;;13.10;99.90;;;;;;10093632;28;20127;-54
2023/04/12 17:59:32;;;;;;;1.30;0.75;;;13.10;99.90;;;;;;10088836;28;20024;-55
2023/04/12 18:04:23;;;;;;;2.22;0.88;;;13.10;99.90;;;;;;10092914;28;20060;-56
2023/04/12 18:09:13;;;;;;;1.75;0.77;;;13.10;99.90;;;;;;10096194;28;20025;-55
2023/04/12 18:14:05;;;;;;;1.60;0.60;;;13.00;99.90;;;;;;10084476;28;20060;-54
2023/04/12 18:18:56;;;;;;;1.30;0.90;;;13.10;99.90;;;;;;10094085;28;20549;-55
2023/04/12 18:23:47;;;;;;;1.17;0.55;;;13.00;99.90;;;;;;10093907;28;20114;-60
2023/04/12 18:28:37;;;;;;;1.85;0.80;;;13.20;99.90;;;;;;10095599;28;20040;-60
2023/04/12 18:33:30;;;;;;;1.60;0.70;;;13.10;99.90;;;;;;10086097;28;21238;-58
2023/04/12 18:38:21;;;;;;;0.60;0.60;;;13.20;99.90;;;;;;10084042;28;20493;-59
2023/04/12 18:43:11;;;;;;;0.70;0.60;;;13.20;99.90;;;;;;10088335;28;20017;-62
2023/04/12 18:48:02;;;;;;;1.38;0.70;;;13.10;99.90;;;;;;10092899;28;20379;-60
2023/04/12 18:52:53;;;;;;;3.08;0.90;;;12.80;99.90;;;;;;10094868;28;20024;-60
2023/04/12 18:57:44;;;;;;;2.35;0.88;;;12.80;99.90;;;;;;10094993;28;20045;-58
2023/04/12 19:02:34;;;;;;;1.30;0.80;;;12.80;99.90;;;;;;10086614;28;20071;-59
2023/04/12 19:07:25;;;;;;;0.80;0.70;;;12.60;99.90;;;;;;10092071;28;20451;-59
2023/04/12 19:12:15;;;;;;;1.35;0.73;;;12.40;99.90;;;;;;10084983;28;20030;-60
2023/04/12 19:17:06;;;;;;;1.25;0.50;;;12.10;99.90;;;;;;10086126;28;20047;-61
2023/04/12 19:21:57;;;;;;;1.30;0.82;;;11.60;99.90;;;;;;10093511;28;20033;-62
2023/04/12 19:26:48;;;;;;;2.20;0.63;;;11.50;99.90;;;;;;10085339;28;20373;-63
2023/04/12 19:31:39;;;;;;;0.85;0.60;;;11.50;99.90;;;;;;10079637;28;20037;-63
2023/04/12 19:36:30;;;;;;;1.80;0.85;;;11.70;99.90;;;;;;10073977;28;20187;-63
2023/04/12 19:41:22;;;;;;;2.17;1.10;;;11.70;99.90;;;;;;10089023;28;20122;-62
2023/04/12 19:46:13;;;;;;;0.98;0.70;;;11.70;99.90;;;;;;10096199;28;20024;-62
2023/04/12 19:51:04;;;;;;;2.08;0.80;;;11.90;99.90;;;;;;10090977;28;20530;-61
2023/04/12 19:55:56;;;;;;;1.35;0.90;;;11.90;99.90;;;;;;10097191;28;20210;-62
2023/04/12 20:00:50;;;;;;;1.80;0.82;;;12.00;99.90;;;;;;10101051;28;20021;-60
2023/04/12 20:05:42;;;;;;;1.40;0.60;;;11.90;99.90;;;;;;10088435;28;20056;-61
2023/04/12 20:10:32;;;;;;;2.10;1.27;;;11.90;99.90;;;;;;10099229;28;20490;-62
2023/04/12 20:15:23;;;;;;;1.27;0.88;;;11.90;99.90;;;;;;10097708;28;20127;-61
2023/04/12 20:20:14;;;;;;;2.17;1.00;;;11.90;99.90;;;;;;10092548;28;20128;-61
2023/04/12 20:25:05;;;;;;;2.75;0.88;;;11.90;99.90;;;;;;10105421;28;20024;-63
2023/04/12 20:29:55;;;;;;;2.60;1.15;;;11.90;99.90;;;;;;10098789;28;20564;-62
2023/04/12 20:34:47;;;;;;;1.13;0.68;;;11.90;99.90;;;;;;10099022;28;20041;-63
2023/04/12 20:39:39;;;;;;;2.30;1.00;;;11.90;99.90;;;;;;10099213;28;20032;-61
2023/04/12 20:44:30;;;;;;;1.73;1.00;;;11.80;99.90;;;;;;10092552;28;20087;-58
2023/04/12 20:49:20;;;;;;;0.77;0.38;;;11.60;99.90;;;;;;10090134;28;20617;-65
2023/04/12 20:54:12;;;;;;;1.27;0.70;;;11.60;99.90;;;;;;10100868;28;20029;-64
2023/04/12 20:59:03;;;;;;;1.63;1.00;;;11.50;99.90;;;;;;10095665;28;20120;-62
2023/04/12 21:03:54;;;;;;;3.10;0.75;;;11.50;99.90;;;;;;10104709;28;20124;-62
2023/04/12 21:08:47;;;;;;;0.98;0.90;;;11.40;99.90;;;;;;10103327;28;20029;-61
2023/04/12 21:13:38;;;;;;;1.20;0.50;;;11.50;99.90;;;;;;10100320;28;20036;-63
2023/04/12 21:18:32;;;;;;;2.20;0.68;;;11.50;99.90;;;;;;10086847;28;20041;-60
2023/04/12 21:23:23;;;;;;;0.68;0.60;;;11.50;99.90;;;;;;10090957;28;20208;-60
2023/04/12 21:28:14;;;;;;;1.20;0.45;;;11.50;99.90;;;;;;10100910;28;20335;-60
2023/04/12 21:33:05;;;;;;;4.10;2.05;;;11.50;99.90;;;;;;10099010;28;20107;-60
2023/04/12 21:37:55;;;;;;;1.05;0.80;;;11.50;99.90;;;;;;10091928;28;20033;-59
2023/04/12 21:42:46;;;;;;;1.10;1.00;;;11.60;99.90;;;;;;10097768;28;20029;-59
2023/04/12 21:47:38;;;;;;;26.05;14.43;;;11.70;99.90;;;;;;10104247;28;20043;-60
2023/04/12 21:52:29;;;;;;;3.47;1.70;;;11.80;99.90;;;;;;10095037;28;20139;-60
2023/04/12 21:57:20;;;;;;;5.43;1.55;;;11.80;99.90;;;;;;10101831;28;20533;-59
2023/04/12 22:02:11;;;;;;;1.17;0.90;;;11.70;99.90;;;;;;10102612;28;20064;-60
2023/04/12 22:07:02;;;;;;;3.85;1.30;;;11.50;99.90;;;;;;10100929;28;20079;-60
2023/04/12 22:11:53;;;;;;;0.82;0.50;;;11.20;99.90;;;;;;10091736;28;20091;-60
2023/04/12 22:16:44;;;;;;;0.60;0.47;;;11.00;99.90;;;;;;10101980;28;20040;-60
2023/04/12 22:21:34;;;;;;;3.40;0.65;;;11.00;99.90;;;;;;10103609;28;20029;-61
2023/04/12 22:26:25;;;;;;;1.40;0.63;;;11.00;99.90;;;;;;10097903;28;20044;-61
2023/04/12 22:31:20;;;;;;;1.48;0.45;;;10.90;99.90;;;;;;10097257;28;20035;-60
2023/04/12 22:36:12;;;;;;;2.90;0.73;;;10.80;99.90;;;;;;10094766;28;20037;-59
2023/04/12 22:41:03;;;;;;;0.98;0.47;;;10.80;99.90;;;;;;10098019;28;20021;-62
2023/04/12 22:45:54;;;;;;;1.85;0.77;;;10.80;99.90;;;;;;10098046;28;20041;-61
2023/04/12 22:50:45;;;;;;;1.77;0.93;;;10.80;99.90;;;;;;10098835;28;20029;-60
2023/04/12 22:55:37;;;;;;;0.73;0.50;;;10.80;99.90;;;;;;10105058;28;20036;-59
2023/04/12 23:00:29;;;;;;;1.05;0.30;;;10.80;99.90;;;;;;10103348;28;20179;-60
2023/04/12 23:05:19;;;;;;;8.63;0.77;;;10.80;99.90;;;;;;10103337;28;20080;-62
2023/04/12 23:10:11;;;;;;;1.30;0.40;;;10.70;99.90;;;;;;10105447;28;20035;-59
2023/04/12 23:15:01;;;;;;;0.98;0.43;;;10.70;99.90;;;;;;10104972;28;20078;-62
2023/04/12 23:19:52;;;;;;;1.75;0.38;;;10.70;99.90;;;;;;10116587;28;20495;-60
2023/04/12 23:24:49;;;;;;;2.35;1.45;;;10.70;99.90;;;;;;10103836;28;20036;-59
2023/04/12 23:29:41;;;;;;;1.35;0.63;;;10.60;99.90;;;;;;10103901;28;20117;-61
2023/04/12 23:34:33;;;;;;;1.48;0.60;;;10.50;99.90;;;;;;10098308;28;20196;-61
2023/04/12 23:39:24;;;;;;;0.68;0.43;;;10.50;99.90;;;;;;10101903;28;20037;-62
2023/04/12 23:44:14;;;;;;;0.77;0.25;;;10.40;99.90;;;;;;10103178;28;20092;-63
2023/04/12 23:49:05;;;;;;;1.45;0.98;;;10.40;99.90;;;;;;10110569;28;20040;-64
2023/04/12 23:53:56;;;;;;;0.77;0.38;;;10.30;99.90;;;;;;10104870;28;20094;-60
2023/04/12 23:58:46;;;;;;;0.45;0.22;;;10.30;99.90;;;;;;10102436;28;20273;-61
